createdAt,value
2023-08-29T03:00:16.445Z,97405.88
2023-08-29T03:30:16.686Z,97409.75
2023-08-29T04:15:17.060Z,97405.09
2023-08-29T04:17:45.660Z,97408.47
2023-08-29T04:20:14.009Z,97408.44
2023-08-29T04:22:41.330Z,97407.16
2023-08-29T04:25:48.360Z,97414.94
2023-08-29T04:34:33.083Z,97407.19
2023-08-29T04:37:00.361Z,97397.59
2023-08-29T04:39:27.663Z,97398.13
2023-08-29T04:41:55.039Z,97398.88
2023-08-29T04:44:33.061Z,97404.56
2023-08-29T04:47:00.765Z,97397.06
2023-08-29T04:52:37.388Z,97398.13
2023-08-29T04:55:09.106Z,97400.44
2023-08-29T05:18:36.722Z,97394.75
2023-08-29T05:21:32.451Z,97391.91
2023-08-29T05:24:04.671Z,97390.38
2023-08-29T05:51:09.877Z,97403.34
2023-08-29T05:53:45.092Z,97400.75
2023-08-29T05:56:15.980Z,97393.50
2023-08-29T05:58:43.475Z,97391.69
2023-08-29T06:01:10.865Z,97400.25
2023-08-29T06:03:38.432Z,97397.16
2023-08-29T06:06:05.860Z,97401.81
2023-08-29T06:08:35.887Z,97404.91
2023-08-29T06:11:05.102Z,97402.88
2023-08-29T06:13:32.595Z,97406.72
2023-08-29T06:15:59.880Z,97407.78
2023-08-29T06:18:27.308Z,97412.69
2023-08-29T06:20:54.587Z,97413.19
2023-08-29T06:23:21.830Z,97416.81
2023-08-29T06:25:50.424Z,97418.63
2023-08-29T06:28:17.877Z,97415.50
2023-08-29T06:30:47.298Z,97420.41
2023-08-29T06:33:14.616Z,97417.28
2023-08-29T06:35:42.263Z,97424.00
2023-08-29T06:38:09.832Z,97416.22
2023-08-29T06:40:37.675Z,97415.44
2023-08-29T06:43:05.193Z,97415.69
2023-08-29T06:45:33.037Z,97422.94
2023-08-29T06:48:00.348Z,97418.50
2023-08-29T06:50:27.727Z,97417.44
2023-08-29T06:52:54.845Z,97417.44
2023-08-29T06:55:22.146Z,97414.53
2023-08-29T06:57:49.290Z,97418.19
2023-08-29T07:00:18.245Z,97415.84
2023-08-29T07:02:45.399Z,97415.06
2023-08-29T07:05:12.776Z,97415.59
2023-08-29T07:07:41.828Z,97416.84
2023-08-29T07:10:09.577Z,97426.94
2023-08-29T07:12:37.068Z,97421.19
2023-08-29T07:15:04.879Z,97421.13
2023-08-29T07:17:32.590Z,97411.75
2023-08-29T07:20:00.145Z,97415.31
2023-08-29T07:22:27.454Z,97423.56
2023-08-29T07:24:55.187Z,97421.75
2023-08-29T07:27:22.808Z,97420.44
2023-08-29T07:29:50.259Z,97427.50
2023-08-29T07:32:17.480Z,97428.53
2023-08-29T07:34:44.735Z,97436.00
2023-08-29T07:37:12.006Z,97440.94
2023-08-29T07:39:39.529Z,97442.47
2023-08-29T07:42:06.849Z,97444.75
2023-08-29T07:44:34.007Z,97444.19
2023-08-29T07:49:31.414Z,97452.88
2023-08-29T07:51:59.027Z,97456.47
2023-08-29T07:54:26.328Z,97454.28
2023-08-29T07:56:54.650Z,97462.44
2023-08-29T07:59:23.685Z,97461.25
2023-08-29T08:01:51.214Z,97456.53
2023-08-29T08:04:18.742Z,97461.66
2023-08-29T08:06:46.056Z,97465.47
2023-08-29T08:09:14.344Z,97467.97
2023-08-29T08:11:41.601Z,97468.63
2023-08-29T08:14:08.963Z,97466.72
2023-08-29T08:16:36.347Z,97465.69
2023-08-29T08:19:05.389Z,97471.69
2023-08-29T08:21:32.875Z,97470.91
2023-08-29T08:24:06.964Z,97478.59
2023-08-29T08:26:37.349Z,97472.25
2023-08-29T08:29:08.546Z,97482.97
2023-08-29T08:31:36.071Z,97475.19
2023-08-29T08:34:08.665Z,97475.19
2023-08-29T08:36:38.438Z,97476.88
2023-08-29T08:39:06.010Z,97479.13
2023-08-29T08:41:37.952Z,97483.16
2023-08-29T08:44:17.437Z,97484.16
2023-08-29T08:46:48.703Z,97483.81
2023-08-29T08:49:55.892Z,97484.69
2023-08-29T08:52:24.274Z,97485.28
2023-08-29T08:54:51.975Z,97481.25
2023-08-29T08:57:23.868Z,97488.19
2023-08-29T08:59:52.846Z,97486.97
2023-08-29T09:02:20.802Z,97488.38
2023-08-29T09:04:48.563Z,97487.53
2023-08-29T09:07:15.774Z,97489.84
2023-08-29T09:09:42.913Z,97485.53
2023-08-29T09:12:10.209Z,97488.91
2023-08-29T09:14:42.688Z,97485.28
2023-08-29T09:17:10.183Z,97490.69
2023-08-29T09:19:38.211Z,97489.53
2023-08-29T09:22:05.487Z,97485.25
2023-08-29T09:24:35.221Z,97484.09
2023-08-29T09:27:13.586Z,97491.06
2023-08-29T09:29:41.139Z,97490.41
2023-08-29T09:32:15.652Z,97482.63
2023-08-29T09:34:45.463Z,97485.41
2023-08-29T09:37:15.933Z,97485.75
2023-08-29T09:39:43.238Z,97483.97
2023-08-29T09:42:12.045Z,97487.13
2023-08-29T09:44:41.210Z,97484.25
2023-08-29T09:47:10.909Z,97477.09
2023-08-29T09:49:49.399Z,97476.22
2023-08-29T09:52:18.032Z,97476.31
2023-08-29T09:54:59.405Z,97473.50
2023-08-29T09:57:32.765Z,97473.09
2023-08-29T10:00:03.675Z,97475.31
2023-08-29T10:02:35.594Z,97472.09
2023-08-29T10:05:10.426Z,97469.19
2023-08-29T10:07:47.310Z,97463.47
2023-08-29T10:10:15.281Z,97465.09
2023-08-29T10:12:47.602Z,97454.66
2023-08-29T10:15:15.839Z,97443.41
2023-08-29T10:17:44.131Z,97448.50
2023-08-29T10:20:14.245Z,97441.41
2023-08-29T10:22:49.727Z,97444.59
2023-08-29T10:25:20.096Z,97444.72
2023-08-29T10:27:47.613Z,97452.22
2023-08-29T10:30:16.100Z,97454.72
2023-08-29T10:32:46.163Z,97447.06
2023-08-29T10:35:21.466Z,97446.50
2023-08-29T10:37:53.218Z,97442.13
2023-08-29T10:40:22.816Z,97454.09
2023-08-29T10:42:56.160Z,97456.22
2023-08-29T10:45:43.320Z,97457.72
2023-08-29T10:48:11.080Z,97462.47
2023-08-29T10:50:39.302Z,97453.59
2023-08-29T10:53:19.181Z,97458.28
2023-08-29T10:56:00.925Z,97458.94
2023-08-29T10:58:40.606Z,97453.63
2023-08-29T11:01:10.168Z,97448.81
2023-08-29T11:03:54.332Z,97449.75
2023-08-29T11:06:24.541Z,97448.34
2023-08-29T11:09:12.216Z,97455.84
2023-08-29T11:11:40.039Z,97452.47
2023-08-29T11:14:10.130Z,97451.31
2023-08-29T11:16:44.332Z,97454.22
2023-08-29T11:19:13.664Z,97452.25
2023-08-29T11:21:49.932Z,97464.03
2023-08-29T11:24:17.728Z,97458.38
2023-08-29T11:26:47.683Z,97460.94
2023-08-29T11:29:15.168Z,97454.19
2023-08-29T11:31:47.487Z,97446.03
2023-08-29T11:34:22.152Z,97454.28
2023-08-29T11:36:52.436Z,97447.31
2023-08-29T11:39:23.348Z,97450.31
2023-08-29T11:42:05.001Z,97448.06
2023-08-29T11:48:13.236Z,97438.75
2023-08-29T11:50:41.297Z,97433.53
2023-08-29T11:53:09.086Z,97435.25
2023-08-29T11:55:37.532Z,97434.13
2023-08-29T11:58:07.301Z,97434.03
2023-08-29T12:00:35.216Z,97439.91
2023-08-29T12:03:02.855Z,97439.06
2023-08-29T12:05:32.197Z,97432.78
2023-08-29T12:07:59.554Z,97432.06
2023-08-29T12:10:28.485Z,97438.41
2023-08-29T12:12:56.813Z,97432.53
2023-08-29T12:15:43.822Z,97432.69
2023-08-29T12:18:34.139Z,97438.00
2023-08-29T12:21:19.088Z,97435.47
2023-08-29T12:23:47.456Z,97444.41
2023-08-29T12:26:16.583Z,97437.75
2023-08-29T12:28:44.537Z,97443.63
2023-08-29T12:31:13.380Z,97440.38
2023-08-29T12:33:41.014Z,97444.13
2023-08-29T12:36:08.481Z,97436.97
2023-08-29T12:38:35.793Z,97436.69
2023-08-29T12:41:04.547Z,97445.44
2023-08-29T12:43:31.870Z,97443.66
2023-08-29T12:46:00.603Z,97441.94
2023-08-29T12:48:28.505Z,97442.34
2023-08-29T12:50:55.832Z,97432.53
2023-08-29T12:53:23.156Z,97430.66
2023-08-29T12:55:52.080Z,97427.56
2023-08-29T12:58:19.303Z,97425.78
2023-08-29T13:00:46.881Z,97416.63
2023-08-29T13:03:14.472Z,97420.59
2023-08-29T13:05:42.600Z,97408.06
2023-08-29T13:08:10.223Z,97419.75
2023-08-29T13:10:37.738Z,97412.41
2023-08-29T13:13:05.131Z,97413.31
2023-08-29T13:15:45.278Z,97414.81
2023-08-29T13:18:18.077Z,97411.13
2023-08-29T13:20:45.607Z,97407.66
2023-08-29T13:23:12.861Z,97396.91
2023-08-29T13:25:40.082Z,97405.78
2023-08-29T13:28:07.738Z,97392.03
2023-08-29T13:30:36.459Z,97399.91
2023-08-29T13:33:04.922Z,97407.72
2023-08-29T13:35:32.145Z,97410.63
2023-08-29T13:37:59.425Z,97409.94
2023-08-29T13:40:26.758Z,97415.81
2023-08-29T13:42:53.921Z,97406.97
2023-08-29T13:45:21.258Z,97410.09
2023-08-29T13:47:48.966Z,97406.03
2023-08-29T13:50:16.291Z,97413.34
2023-08-29T13:52:43.573Z,97404.38
2023-08-29T13:55:11.630Z,97397.66
2023-08-29T13:57:38.994Z,97402.81
2023-08-29T14:00:07.004Z,97405.88
2023-08-29T14:02:40.789Z,97403.88
2023-08-29T14:05:09.673Z,97407.53
2023-08-29T14:07:37.316Z,97407.50
2023-08-29T14:10:04.837Z,97403.03
2023-08-29T14:12:32.243Z,97407.84
2023-08-29T14:14:59.420Z,97408.25
2023-08-29T14:17:26.567Z,97403.81
2023-08-29T14:19:54.244Z,97406.38
2023-08-29T14:22:21.385Z,97406.38
2023-08-29T14:24:49.065Z,97400.69
2023-08-29T14:27:16.353Z,97406.25
2023-08-29T14:29:43.542Z,97404.44
2023-08-29T14:32:10.765Z,97401.53
2023-08-29T14:34:38.142Z,97403.47
2023-08-29T14:37:05.257Z,97405.47
2023-08-29T14:39:32.384Z,97412.72
2023-08-29T14:41:59.736Z,97417.97
2023-08-29T14:44:26.938Z,97414.13
2023-08-29T14:46:54.259Z,97423.41
2023-08-29T14:49:21.562Z,97410.81
2023-08-29T14:51:49.124Z,97410.75
2023-08-29T14:54:16.367Z,97413.53
2023-08-29T14:56:43.871Z,97406.03
2023-08-29T14:59:11.248Z,97410.63
2023-08-29T15:01:39.206Z,97409.03
2023-08-29T15:04:06.831Z,97406.59
2023-08-29T15:06:34.431Z,97404.56
2023-08-29T15:09:01.893Z,97407.38
2023-08-29T15:11:29.231Z,97414.16
2023-08-29T15:13:56.509Z,97406.56
2023-08-29T15:16:23.870Z,97403.44
2023-08-29T15:18:51.281Z,97403.75
2023-08-29T15:21:19.969Z,97404.44
2023-08-29T15:23:48.142Z,97401.38
2023-08-29T15:26:15.457Z,97398.31
2023-08-29T15:28:42.896Z,97399.38
2023-08-29T15:31:10.112Z,97402.25
2023-08-29T15:33:37.248Z,97399.84
2023-08-29T15:36:04.586Z,97393.13
2023-08-29T15:38:31.844Z,97401.78
2023-08-29T15:41:25.849Z,97386.34
2023-08-29T15:43:53.938Z,97378.25
2023-08-29T15:46:21.750Z,97396.03
2023-08-29T15:48:49.000Z,97388.88
2023-08-29T15:51:17.331Z,97396.47
2023-08-29T15:53:44.510Z,97395.25
2023-08-29T15:56:12.308Z,97391.63
2023-08-29T15:58:41.507Z,97395.56
2023-08-29T16:01:08.999Z,97399.31
2023-08-29T16:03:36.743Z,97399.91
2023-08-29T16:06:07.195Z,97405.59
2023-08-29T16:08:37.820Z,97404.03
2023-08-29T16:11:05.140Z,97410.34
2023-08-29T16:13:32.326Z,97394.31
2023-08-29T16:15:59.707Z,97401.72
2023-08-29T16:18:27.232Z,97403.72
2023-08-29T16:20:54.839Z,97402.03
2023-08-29T16:23:22.227Z,97404.38
2023-08-29T16:25:52.114Z,97399.28
2023-08-29T16:28:24.454Z,97395.44
2023-08-29T16:30:52.105Z,97394.81
2023-08-29T16:33:19.483Z,97396.03
2023-08-29T16:35:46.845Z,97393.56
2023-08-29T16:38:14.076Z,97391.44
2023-08-29T16:40:41.320Z,97394.66
2023-08-29T16:43:08.976Z,97398.34
2023-08-29T16:45:36.323Z,97408.81
2023-08-29T16:48:05.985Z,97406.16
2023-08-29T16:50:33.564Z,97406.59
2023-08-29T16:53:00.812Z,97412.34
2023-08-29T16:55:28.063Z,97410.47
2023-08-29T16:57:57.103Z,97406.31
2023-08-29T17:01:13.280Z,97417.19
2023-08-29T17:03:41.060Z,97425.16
2023-08-29T17:06:10.007Z,97417.44
2023-08-29T17:08:37.310Z,97413.38
2023-08-29T17:11:04.860Z,97409.25
2023-08-29T17:13:32.064Z,97417.63
2023-08-29T17:16:00.620Z,97426.44
2023-08-29T17:18:28.248Z,97421.72
2023-08-29T17:20:56.781Z,97420.81
2023-08-29T17:23:24.174Z,97417.16
2023-08-29T17:25:51.441Z,97421.19
2023-08-29T17:28:19.901Z,97421.41
2023-08-29T17:30:47.171Z,97425.72
2023-08-29T17:33:14.486Z,97429.44
2023-08-29T17:35:41.763Z,97428.00
2023-08-29T17:38:09.437Z,97420.31
2023-08-29T17:40:36.978Z,97430.00
2023-08-29T17:43:04.498Z,97430.03
2023-08-29T17:45:32.749Z,97421.06
2023-08-29T17:48:00.145Z,97428.91
2023-08-29T17:50:27.473Z,97421.63
2023-08-29T17:52:54.786Z,97423.66
2023-08-29T17:55:21.997Z,97423.44
2023-08-29T17:57:53.066Z,97425.69
2023-08-29T18:00:20.942Z,97417.00
2023-08-29T18:02:48.491Z,97419.13
2023-08-29T18:05:15.813Z,97413.22
2023-08-29T18:07:43.414Z,97419.41
2023-08-29T18:10:15.963Z,97415.34
2023-08-29T18:12:43.403Z,97420.47
2023-08-29T18:15:11.751Z,97426.16
2023-08-29T18:17:39.276Z,97421.03
2023-08-29T18:20:07.743Z,97427.38
2023-08-29T18:22:35.732Z,97427.53
2023-08-29T18:25:03.362Z,97433.53
2023-08-29T18:27:30.866Z,97423.47
2023-08-29T18:29:58.115Z,97430.94
2023-08-29T18:32:25.441Z,97432.94
2023-08-29T18:34:54.247Z,97424.91
2023-08-29T18:37:21.577Z,97426.47
2023-08-29T18:39:48.744Z,97424.16
2023-08-29T18:42:16.011Z,97433.38
2023-08-29T18:44:43.150Z,97433.94
2023-08-29T18:47:10.822Z,97437.09
2023-08-29T18:49:38.067Z,97436.63
2023-08-29T18:52:30.409Z,97442.97
2023-08-29T18:54:58.022Z,97450.06
2023-08-29T18:57:25.785Z,97441.78
2023-08-29T18:59:53.035Z,97441.53
2023-08-29T19:02:20.226Z,97442.13
2023-08-29T19:04:47.401Z,97440.13
2023-08-29T19:07:14.961Z,97446.97
2023-08-29T19:09:44.049Z,97441.25
2023-08-29T19:12:11.390Z,97450.47
2023-08-29T19:14:38.582Z,97447.16
2023-08-29T19:17:05.893Z,97448.94
2023-08-29T19:19:33.045Z,97460.13
2023-08-29T19:22:00.200Z,97453.91
2023-08-29T19:24:28.492Z,97452.94
2023-08-29T19:26:55.631Z,97450.81
2023-08-29T19:29:23.159Z,97451.38
2023-08-29T19:31:50.530Z,97453.47
2023-08-29T19:34:17.800Z,97451.13
2023-08-29T19:36:45.134Z,97451.91
2023-08-29T19:39:17.601Z,97450.34
2023-08-29T19:41:45.748Z,97453.31
2023-08-29T19:44:13.076Z,97457.22
2023-08-29T19:46:43.021Z,97455.69
2023-08-29T19:49:10.400Z,97453.41
2023-08-29T19:51:37.697Z,97452.50
2023-08-29T19:54:05.031Z,97450.53
2023-08-29T19:56:32.212Z,97453.41
2023-08-29T19:59:00.134Z,97449.03
2023-08-29T20:01:27.644Z,97454.81
2023-08-29T20:03:54.960Z,97453.31
2023-08-29T20:06:24.646Z,97456.94
2023-08-29T20:08:52.467Z,97456.94
2023-08-29T20:11:20.766Z,97454.91
2023-08-29T20:13:48.086Z,97449.41
2023-08-29T20:16:15.340Z,97448.69
2023-08-29T20:18:42.547Z,97447.16
2023-08-29T20:21:09.813Z,97445.13
2023-08-29T20:23:44.850Z,97442.72
2023-08-29T20:26:19.207Z,97441.19
2023-08-29T20:28:46.496Z,97434.97
2023-08-29T20:31:13.864Z,97443.28
2023-08-29T20:33:41.241Z,97438.84
2023-08-29T20:36:13.740Z,97434.19
2023-08-29T20:38:41.153Z,97435.25
2023-08-29T20:41:08.530Z,97434.97
2023-08-29T20:43:35.770Z,97434.19
2023-08-29T20:46:03.140Z,97430.81
2023-08-29T20:48:30.399Z,97430.03
2023-08-29T20:51:04.745Z,97436.06
2023-08-29T20:53:35.301Z,97423.06
2023-08-29T20:56:03.816Z,97431.69
2023-08-29T20:58:31.195Z,97440.28
2023-08-29T21:00:59.858Z,97434.06
2023-08-29T21:03:33.101Z,97426.03
2023-08-29T21:06:00.590Z,97421.91
2023-08-29T21:08:28.651Z,97418.03
2023-08-29T21:10:56.660Z,97413.88
2023-08-29T21:13:24.259Z,97416.56
2023-08-29T21:15:55.342Z,97418.44
2023-08-29T21:18:22.611Z,97416.38
2023-08-29T21:21:01.638Z,97415.94
2023-08-29T21:23:30.221Z,97410.69
2023-08-29T21:25:57.565Z,97415.34
2023-08-29T21:28:26.824Z,97403.38
2023-08-29T21:30:55.358Z,97405.22
2023-08-29T21:33:24.429Z,97402.44
2023-08-29T21:35:56.032Z,97394.16
2023-08-29T21:38:23.965Z,97399.88
2023-08-29T21:40:51.186Z,97396.81
2023-08-29T21:43:23.100Z,97386.41
2023-08-29T21:45:55.158Z,97391.56
2023-08-29T21:48:25.946Z,97390.25
2023-08-29T21:50:54.464Z,97382.72
2023-08-29T21:53:21.799Z,97381.69
2023-08-29T21:55:49.610Z,97385.84
2023-08-29T21:58:17.879Z,97375.19
2023-08-29T22:00:49.984Z,97373.41
2023-08-29T22:03:17.291Z,97371.13
2023-08-29T22:05:44.684Z,97367.25
2023-08-29T22:08:12.197Z,97372.19
2023-08-29T22:10:39.647Z,97363.59
2023-08-29T22:13:09.875Z,97361.00
2023-08-29T22:15:38.134Z,97358.69
2023-08-29T22:18:06.147Z,97358.94
2023-08-29T22:20:33.698Z,97356.41
2023-08-29T22:23:01.079Z,97359.59
2023-08-29T22:25:28.621Z,97357.97
2023-08-29T22:27:55.814Z,97358.50
2023-08-29T22:30:23.171Z,97354.34
2023-08-29T22:32:53.301Z,97353.84
2023-08-29T22:35:21.500Z,97353.63
2023-08-29T22:37:48.932Z,97349.72
2023-08-29T22:40:18.109Z,97349.25
2023-08-29T22:42:46.400Z,97354.44
2023-08-29T22:45:14.858Z,97343.00
2023-08-29T22:47:42.496Z,97343.22
2023-08-29T22:50:09.794Z,97342.94
2023-08-29T22:52:40.371Z,97347.88
2023-08-29T22:55:08.019Z,97348.75
2023-08-29T22:57:36.509Z,97348.25
2023-08-29T23:00:05.184Z,97345.72
2023-08-29T23:02:32.673Z,97343.34
2023-08-29T23:05:00.115Z,97347.28
2023-08-29T23:07:27.268Z,97337.41
2023-08-29T23:09:54.432Z,97335.38
2023-08-29T23:12:21.737Z,97336.41
2023-08-29T23:14:48.966Z,97337.44
2023-08-29T23:17:16.178Z,97332.78
2023-08-29T23:19:45.523Z,97334.31
2023-08-29T23:22:12.868Z,97340.03
2023-08-29T23:24:40.244Z,97341.59
2023-08-29T23:27:07.599Z,97333.28
2023-08-29T23:29:37.583Z,97336.09
2023-08-29T23:32:06.297Z,97331.13
2023-08-29T23:34:33.646Z,97335.03
2023-08-29T23:37:00.782Z,97336.56
2023-08-29T23:39:28.055Z,97329.56
2023-08-29T23:41:57.156Z,97325.41
2023-08-29T23:44:24.451Z,97329.06
2023-08-29T23:46:51.858Z,97329.31
2023-08-29T23:49:19.151Z,97333.19
2023-08-29T23:51:46.399Z,97323.88
2023-08-29T23:54:13.754Z,97327.28
2023-08-29T23:56:41.037Z,97329.63
2023-08-29T23:59:08.429Z,97330.19
